Latest Weather Observations for Smithton

IDT60801

Issued at 5:05 pm EST Tuesday 2 September 2014 (issued every 30 minutes, with the page automatically refreshed every 10 minutes)

About weather observations | Map of weather stations | Latest weather observations for TAS | Other Formats
Station Details ID: 091292 Name: SMITHTON AERODROME Lat: -40.83 Lon: 145.08 Height: 7.5 m
Data from the previous 72 hours. | See also: Recent months at Smithton
Date/Time
EST
Temp
°C
App
Temp
°C
Dew
Point
Rel
Hum
%
Delta-T
°C
Wind Press
QNH
hPa
Press
MSL
hPa
Rain
since 9 am
mm
Dir
 
Spd
km/h
Gust
km/h
Spd
kts
Gust
kts
02/05:00pm 10.8 5.3 6.0 72 2.2 SW 24 32 13 17 1020.0 - 0.0
02/04:30pm 11.0 5.5 6.0 71 2.3 SW 24 32 13 17 1019.8 - 0.0
02/04:00pm 11.6 4.8 5.3 65 2.9 SW 30 35 16 19 1019.6 - 0.0
02/03:30pm 12.5 6.0 6.3 66 2.9 SSW 30 39 16 21 1019.4 - 0.0
02/03:00pm 13.0 5.8 4.9 58 3.7 SSW 32 43 17 23 1019.2 1019.2 0.0
02/02:30pm 13.8 6.9 4.7 54 4.2 SSW 30 39 16 21 1018.8 - 0.0
02/02:00pm 13.7 6.0 5.3 57 3.9 SSW 35 44 19 24 1018.7 - 0.0
02/01:30pm 13.4 5.7 3.5 51 4.4 SSW 33 41 18 22 1018.6 - 0.0
02/01:00pm 13.6 6.2 3.9 52 4.4 SSW 32 44 17 24 1018.5 - 0.0
02/12:30pm 13.2 5.8 3.8 53 4.2 SSW 32 44 17 24 1018.7 - 0.0
02/12:00pm 13.4 6.5 4.8 56 4.0 SSW 30 37 16 20 1018.9 1018.9 0.0
02/11:30am 12.7 5.6 3.6 54 4.1 S 30 41 16 22 1018.7 - 0.0
02/11:00am 12.4 5.4 3.9 56 3.8 SSW 30 43 16 23 1018.9 - 0.0
02/10:30am 12.0 5.4 4.2 59 3.5 S 28 37 15 20 1018.9 - 0.0
02/10:00am 11.5 4.5 4.0 60 3.3 S 30 43 16 23 1018.8 - 0.0
02/09:30am 10.9 5.0 4.1 63 3.0 S 24 32 13 17 1018.6 - 0.0
02/09:00am 9.8 4.2 3.3 64 2.8 S 22 33 12 18 1018.4 1018.4 2.6
02/08:30am 8.6 3.6 3.6 71 2.2 S 19 26 10 14 1018.0 - 2.6
02/08:00am 7.0 2.9 4.1 82 1.2 SSW 15 19 8 10 1017.8 - 2.6
02/07:30am 5.4 1.4 3.1 85 0.9 SSW 13 15 7 8 1017.3 - 2.6
02/07:00am 5.6 2.1 3.3 85 1.0 SSE 11 17 6 9 1016.9 - 2.6
02/06:30am 4.6 -0.6 2.6 87 0.8 SSW 19 20 10 11 1016.4 - 2.6
02/06:00am 5.9 0.4 3.9 87 0.8 S 22 30 12 16 1015.9 1015.9 2.6
02/05:30am 5.7 0.2 4.0 89 0.7 SSW 22 26 12 14 1015.4 - 2.6
02/05:00am 6.3 0.2 4.9 91 0.6 SSW 26 35 14 19 1014.9 - 2.6
02/04:30am 6.3 1.0 4.9 91 0.6 S 22 28 12 15 1014.4 - 2.6
02/04:00am 6.3 2.8 5.6 95 0.3 S 13 20 7 11 1013.9 - 2.6
02/03:30am 5.4 1.0 5.0 97 0.2 S 17 20 9 11 1013.5 - 2.6
02/03:00am 4.9 1.2 4.6 98 0.1 SSW 13 15 7 8 1013.2 1013.2 2.6
02/02:30am 4.9 0.5 4.6 98 0.1 SSW 17 19 9 10 1013.1 - 2.6
02/02:00am 4.2 0.4 3.8 97 0.2 SSW 13 17 7 9 1012.8 - 2.6
02/01:30am 4.6 0.1 4.2 97 0.2 SSW 17 19 9 10 1012.7 - 2.6
02/01:00am 4.8 1.4 4.2 96 0.3 SSW 11 13 6 7 1012.3 - 2.6
02/12:30am 5.0 1.3 4.3 95 0.3 SSW 13 15 7 8 1012.2 - 2.6
02/12:00am 5.3 1.6 4.6 95 0.3 SSW 13 15 7 8 1011.9 1011.9 2.6
 
Date/Time
EST
Temp
°C
App
Temp
°C
Dew
Point
Rel
Hum
%
Delta-T
°C
Wind Press
QNH
hPa
Press
MSL
hPa
Rain
since 9 am
mm
Dir
 
Spd
km/h
Gust
km/h
Spd
kts
Gust
kts
01/11:30pm 5.7 2.5 5.0 95 0.3 SW 11 15 6 8 1011.7 - 2.6
01/11:00pm 6.5 3.1 5.8 95 0.3 SW 13 17 7 9 1011.3 - 2.6
01/10:30pm 5.4 1.7 4.7 95 0.3 SW 13 17 7 9 1011.1 - 2.6
01/10:00pm 5.6 1.9 4.7 94 0.4 SSW 13 17 7 9 1010.8 - 2.6
01/09:30pm 6.5 2.6 5.3 92 0.5 SSW 15 17 8 9 1010.5 - 2.6
01/09:00pm 7.3 3.2 6.2 93 0.5 SW 17 20 9 11 1010.5 1010.5 2.6
01/08:30pm 7.5 3.4 6.1 91 0.6 SW 17 20 9 11 1010.3 - 2.6
01/08:00pm 8.3 4.4 6.9 91 0.6 SW 17 20 9 11 1009.9 - 2.6
01/07:30pm 8.3 4.7 6.6 89 0.8 SW 15 22 8 12 1009.4 - 2.6
01/07:00pm 8.8 4.3 6.9 88 0.9 SW 20 28 11 15 1008.8 - 2.6
01/06:30pm 8.8 4.8 6.8 87 0.9 SW 17 24 9 13 1008.1 - 2.6
01/06:00pm 9.6 5.1 7.0 84 1.2 SW 20 24 11 13 1007.8 1007.8 2.6
01/05:30pm 10.6 5.5 7.8 83 1.4 SSW 24 37 13 20 1007.3 - 2.6
01/05:00pm 11.7 7.2 8.6 81 1.5 SW 22 26 12 14 1006.8 - 2.6
01/04:30pm 12.3 5.7 8.6 78 1.8 SSW 33 43 18 23 1006.2 - 2.6
01/04:00pm 13.1 7.5 8.8 75 2.2 SW 28 41 15 22 1005.6 - 2.6
01/03:30pm 12.9 7.7 8.8 76 2.1 SW 26 35 14 19 1005.4 - 2.6
01/03:00pm 13.1 8.4 9.2 77 2.0 SW 24 37 13 20 1005.2 1005.2 2.6
01/02:30pm 13.0 7.6 9.4 79 1.8 SW 28 39 15 21 1004.8 - 2.6
01/02:00pm 12.4 6.2 9.4 82 1.5 SW 32 41 17 22 1004.8 - 2.6
01/01:30pm 13.0 7.7 10.0 82 1.5 SW 28 39 15 21 1004.7 - 2.6
01/01:00pm 13.0 8.4 10.9 87 1.1 SW 26 32 14 17 1004.7 - 2.6
01/12:30pm 12.2 7.9 10.8 91 0.7 SSW 24 33 13 18 1004.6 - 2.6
01/12:00pm 12.2 7.3 11.4 95 0.4 SW 28 35 15 19 1004.8 1004.8 2.6
01/11:30am 12.4 9.2 11.9 97 0.3 WSW 20 26 11 14 1004.6 - 2.4
01/11:00am 12.3 10.8 12.0 98 0.2 WNW 11 13 6 7 1004.5 - 2.2
01/10:30am 12.2 9.9 11.7 97 0.3 WNW 15 20 8 11 1004.6 - 1.8
01/10:00am 12.5 9.5 12.0 97 0.3 NW 19 28 10 15 1004.6 - 1.4
01/09:30am 12.8 9.3 12.2 96 0.3 WNW 22 32 12 17 1004.5 - 0.6
01/09:00am 12.8 8.5 12.0 95 0.4 NNW 26 33 14 18 1004.5 1004.5 1.0
01/08:30am 13.0 8.2 11.7 92 0.7 NNW 28 37 15 20 1004.4 - 1.0
01/08:00am 13.2 9.1 11.6 90 0.9 N 24 32 13 17 1004.4 - 1.0
01/07:30am 13.1 10.6 12.2 94 0.5 N 17 24 9 13 1004.3 - 0.8
01/07:00am 13.0 10.5 12.4 96 0.3 N 17 20 9 11 1004.5 - 0.6
01/06:30am 13.2 11.1 12.3 94 0.5 N 15 24 8 13 1004.9 - 0.4
01/06:00am 13.0 11.2 12.1 94 0.5 NNE 13 19 7 10 1004.9 1004.9 0.2
01/05:30am 12.3 11.4 11.5 95 0.4 NNE 7 9 4 5 1005.1 - 0.2
01/05:00am 12.6 11.4 11.7 94 0.5 NNE 9 15 5 8 1005.4 - 0.2
01/04:30am 12.9 11.4 12.0 94 0.5 NNE 11 17 6 9 1005.4 - 0.2
01/04:00am 13.0 12.3 11.9 93 0.6 NNE 7 9 4 5 1006.1 - 0.2
01/03:30am 12.6 12.9 10.8 89 0.9 CALM 0 6 0 3 1005.6 - 0.2
01/03:00am 13.4 11.7 11.3 87 1.1 NE 11 17 6 9 1006.7 1006.7 0.2
01/02:30am 14.0 12.3 11.3 84 1.4 NNE 11 15 6 8 1007.3 - 0.2
01/02:00am 13.6 12.3 11.3 86 1.2 NNE 9 11 5 6 1007.6 - 0.2
01/01:30am 13.8 12.1 11.1 84 1.4 NNE 11 15 6 8 1007.7 - 0.2
01/01:00am 14.3 11.8 11.1 81 1.7 NNE 15 22 8 12 1007.8 - 0.2
01/12:30am 13.8 11.4 11.5 86 1.2 ENE 15 19 8 10 1008.0 - 0.2
01/12:00am 13.8 11.0 11.3 85 1.3 ENE 17 20 9 11 1008.2 1008.2 0.2
 
Date/Time
EST
Temp
°C
App
Temp
°C
Dew
Point
Rel
Hum
%
Delta-T
°C
Wind Press
QNH
hPa
Press
MSL
hPa
Rain
since 9 am
mm
Dir
 
Spd
km/h
Gust
km/h
Spd
kts
Gust
kts
31/11:30pm 14.1 10.7 11.4 84 1.4 ENE 20 30 11 16 1008.5 - 0.2
31/11:00pm 14.1 10.4 11.4 84 1.4 ENE 22 28 12 15 1008.6 - 0.2
31/10:30pm 13.6 9.2 11.8 89 1.0 ENE 26 33 14 18 1009.0 - 0.2
31/10:00pm 13.4 10.4 12.0 91 0.8 E 19 22 10 12 1010.0 - 0.0
31/09:30pm 13.6 10.3 11.7 88 1.0 ENE 20 30 11 16 1010.6 - 0.0
31/09:00pm 13.6 10.3 11.5 87 1.1 E 20 28 11 15 1010.5 1010.5 0.0
31/08:30pm 13.3 9.2 11.5 89 1.0 E 24 32 13 17 1010.6 - 0.0
31/08:00pm 13.1 9.1 11.7 91 0.7 E 24 32 13 17 1011.0 - 0.0
31/07:30pm 12.9 9.2 11.5 91 0.7 E 22 30 12 16 1011.2 - 0.0
31/07:00pm 12.9 8.1 11.5 91 0.7 E 28 39 15 21 1011.3 - 0.0
31/06:30pm 12.6 8.1 11.3 92 0.7 E 26 33 14 18 1011.4 - 0.0
31/06:00pm 12.7 8.6 11.4 92 0.7 E 24 35 13 19 1011.3 1011.3 0.0
31/05:30pm 13.1 8.6 11.5 90 0.8 E 26 33 14 18 1011.5 - 0.0
31/05:00pm 13.5 8.7 11.6 88 1.0 ENE 28 39 15 21 1011.6 - 0.0
31/04:30pm 14.2 9.5 12.1 87 1.1 ENE 28 39 15 21 1011.6 - 0.0
31/04:00pm 14.2 9.5 11.9 86 1.2 ENE 28 39 15 21 1012.0 - 0.0
31/03:30pm 14.5 9.9 12.2 86 1.2 ENE 28 39 15 21 1012.3 - 0.0
31/03:00pm 15.2 10.0 12.7 85 1.4 ENE 32 41 17 22 1012.7 1012.7 0.0
31/02:30pm 15.0 10.0 12.1 83 1.6 ENE 30 39 16 21 1013.2 - 0.0
31/02:00pm 15.1 10.8 12.2 83 1.6 ENE 26 35 14 19 1013.5 - 0.0
31/01:30pm 15.6 11.4 12.4 81 1.8 ENE 26 33 14 18 1013.9 - 0.0
31/01:00pm 15.4 12.1 12.9 85 1.4 ENE 22 30 12 16 1014.5 - 0.0
31/12:30pm 15.0 11.2 12.5 85 1.4 NE 24 35 13 19 1015.1 - 0.0
31/12:00pm 14.9 11.3 11.9 82 1.6 NE 22 30 12 16 1015.6 1015.6 0.0
31/11:30am 15.9 11.8 12.6 81 1.8 ENE 26 33 14 18 1015.7 - 0.0
31/11:00am 16.2 12.1 12.7 80 1.9 ENE 26 32 14 17 1016.1 - 0.0
31/10:30am 15.3 11.0 12.2 82 1.7 ENE 26 33 14 18 1016.7 - 0.0
31/10:00am 14.5 10.2 12.0 85 1.4 ENE 26 33 14 18 1016.8 - 0.0
31/09:30am 14.0 9.3 12.0 88 1.1 ENE 28 35 15 19 1017.0 - 0.0
31/09:00am 13.8 10.0 12.4 91 0.8 ENE 24 30 13 16 1017.5 1017.5 0.2
31/08:30am 13.1 9.5 12.0 93 0.6 ENE 22 30 12 16 1017.8 - 0.2
31/08:00am 12.6 9.0 11.7 94 0.5 ENE 22 30 12 16 1017.8 - 0.2
31/07:30am 12.3 8.2 11.5 95 0.4 E 24 32 13 17 1017.7 - 0.2
31/07:00am 11.9 8.1 11.3 96 0.3 E 22 30 12 16 1017.7 - 0.2
31/06:30am 11.9 8.5 11.3 96 0.3 E 20 30 11 16 1017.9 - 0.2
31/06:00am 11.5 7.6 10.7 95 0.4 E 22 28 12 15 1017.9 1017.9 0.2
31/05:30am 11.7 7.8 10.9 95 0.4 ENE 22 32 12 17 1017.9 - 0.2
31/05:00am 11.6 7.7 10.8 95 0.4 E 22 28 12 15 1017.8 - 0.2
31/04:30am 12.0 8.2 11.1 94 0.5 ENE 22 30 12 16 1018.2 - 0.2
31/04:00am 11.8 8.3 10.9 94 0.5 ENE 20 28 11 15 1018.4 - 0.2
31/03:30am 11.8 7.5 10.9 94 0.5 E 24 30 13 16 1018.6 - 0.2
31/03:00am 11.9 8.6 11.0 94 0.5 E 19 28 10 15 1019.0 1019.0 0.2
31/02:30am 12.1 8.6 11.0 93 0.6 ENE 20 28 11 15 1019.5 - 0.2
31/02:00am 12.1 7.9 11.2 94 0.5 ENE 24 32 13 17 1019.4 - 0.2
31/01:30am 12.1 8.3 11.0 93 0.6 ENE 22 28 12 15 1020.2 - 0.2
31/01:00am 12.2 7.9 10.9 92 0.7 ENE 24 32 13 17 1020.5 - 0.2
31/12:30am 12.3 8.4 10.9 91 0.7 ENE 22 28 12 15 1020.9 - 0.2
31/12:00am 12.3 7.6 10.7 90 0.8 ENE 26 33 14 18 1021.1 1021.1 0.2
 
Date/Time
EST
Temp
°C
App
Temp
°C
Dew
Point
Rel
Hum
%
Delta-T
°C
Wind Press
QNH
hPa
Press
MSL
hPa
Rain
since 9 am
mm
Dir
 
Spd
km/h
Gust
km/h
Spd
kts
Gust
kts
30/11:30pm 12.6 8.4 11.0 90 0.8 ENE 24 35 13 19 1021.3 - 0.2
30/11:00pm 12.4 7.4 10.8 90 0.8 ENE 28 39 15 21 1021.2 - 0.2
30/10:30pm 12.4 7.0 10.8 90 0.8 ENE 30 41 16 22 1021.4 - 0.2
30/10:00pm 12.3 7.2 10.7 90 0.8 ENE 28 39 15 21 1021.8 - 0.2
30/09:30pm 11.9 6.8 10.5 91 0.7 ENE 28 37 15 20 1022.2 - 0.2
30/09:00pm 12.0 7.2 10.4 90 0.8 E 26 33 14 18 1022.6 1022.6 0.2
30/08:30pm 12.0 7.9 10.2 89 0.9 ENE 22 30 12 16 1022.7 - 0.2
30/08:00pm 12.1 7.3 10.3 89 0.9 ENE 26 37 14 20 1022.7 - 0.2
30/07:30pm 12.1 7.7 10.3 89 0.9 ENE 24 33 13 18 1022.9 - 0.2
30/07:00pm 12.1 7.6 10.2 88 1.0 ENE 24 32 13 17 1022.6 - 0.2
30/06:30pm 11.8 6.9 9.9 88 1.0 ENE 26 32 14 17 1022.6 - 0.2
30/06:00pm 12.0 7.0 9.7 86 1.2 ENE 26 33 14 18 1022.8 1022.8 0.2
30/05:30pm 12.3 6.9 9.5 83 1.4 ENE 28 39 15 21 1022.9 - 0.2

Other Formats:

Comma delimited format used in spreadsheet applications
http://www.bom.gov.au/fwo/IDT60801/IDT60801.94953.axf

JavaScript Object Notation format (JSON) in row-major order
http://www.bom.gov.au/fwo/IDT60801/IDT60801.94953.json